sensor_id;sensor_type;location;lat;lon;timestamp;pressure;altitude;pressure_sealevel;temperature;humidity
51926;BME280;37952;51.938;15.480;2022-08-26T00:02:17;99752.52;;;23.72;68.23
51926;BME280;37952;51.938;15.480;2022-08-26T00:05:23;99753.48;;;23.70;68.46
51926;BME280;37952;51.938;15.480;2022-08-26T00:08:26;99751.95;;;23.70;68.39
51926;BME280;37952;51.938;15.480;2022-08-26T00:11:30;99746.89;;;23.71;68.47
51926;BME280;37952;51.938;15.480;2022-08-26T00:14:33;99745.92;;;23.70;68.53
51926;BME280;37952;51.938;15.480;2022-08-26T00:17:36;99741.30;;;23.67;68.45
51926;BME280;37952;51.938;15.480;2022-08-26T00:20:42;99738.32;;;23.67;68.60
51926;BME280;37952;51.938;15.480;2022-08-26T00:23:46;99738.02;;;23.68;68.54
51926;BME280;37952;51.938;15.480;2022-08-26T00:26:49;99737.92;;;23.69;68.48
51926;BME280;37952;51.938;15.480;2022-08-26T00:29:53;99735.73;;;23.69;68.59
51926;BME280;37952;51.938;15.480;2022-08-26T00:32:58;99732.49;;;23.69;68.62
51926;BME280;37952;51.938;15.480;2022-08-26T00:36:02;99736.01;;;23.68;68.46
51926;BME280;37952;51.938;15.480;2022-08-26T00:39:05;99733.08;;;23.67;68.74
51926;BME280;37952;51.938;15.480;2022-08-26T00:42:09;99732.41;;;23.66;68.85
51926;BME280;37952;51.938;15.480;2022-08-26T00:45:16;99728.60;;;23.67;68.75
51926;BME280;37952;51.938;15.480;2022-08-26T00:48:22;99726.90;;;23.68;68.71
51926;BME280;37952;51.938;15.480;2022-08-26T00:51:27;99727.91;;;23.68;68.75
51926;BME280;37952;51.938;15.480;2022-08-26T00:54:37;99727.77;;;23.68;68.89
51926;BME280;37952;51.938;15.480;2022-08-26T00:57:48;99723.62;;;23.68;69.00
51926;BME280;37952;51.938;15.480;2022-08-26T01:00:52;99722.05;;;23.68;68.98
51926;BME280;37952;51.938;15.480;2022-08-26T01:03:56;99719.21;;;23.67;68.91
51926;BME280;37952;51.938;15.480;2022-08-26T01:06:59;99715.50;;;23.66;68.96
51926;BME280;37952;51.938;15.480;2022-08-26T01:10:07;99713.48;;;23.67;69.05
51926;BME280;37952;51.938;15.480;2022-08-26T01:13:12;99712.80;;;23.67;69.12
51926;BME280;37952;51.938;15.480;2022-08-26T01:16:18;99712.74;;;23.65;69.16
51926;BME280;37952;51.938;15.480;2022-08-26T01:19:30;99710.28;;;23.62;69.26
51926;BME280;37952;51.938;15.480;2022-08-26T01:22:54;99707.15;;;23.61;69.27
51926;BME280;37952;51.938;15.480;2022-08-26T01:26:04;99714.17;;;23.61;69.55
51926;BME280;37952;51.938;15.480;2022-08-26T01:29:14;99709.64;;;23.58;69.45
51926;BME280;37952;51.938;15.480;2022-08-26T01:32:20;99708.68;;;23.56;69.56
51926;BME280;37952;51.938;15.480;2022-08-26T01:35:25;99712.64;;;23.54;69.50
51926;BME280;37952;51.938;15.480;2022-08-26T01:38:29;99707.56;;;23.51;69.76
51926;BME280;37952;51.938;15.480;2022-08-26T01:41:34;99707.86;;;23.49;69.95
51926;BME280;37952;51.938;15.480;2022-08-26T01:44:45;99706.95;;;23.47;69.91
51926;BME280;37952;51.938;15.480;2022-08-26T01:47:52;99705.66;;;23.44;70.05
51926;BME280;37952;51.938;15.480;2022-08-26T01:51:00;99705.13;;;23.41;70.08
51926;BME280;37952;51.938;15.480;2022-08-26T01:54:09;99705.72;;;23.37;70.09
51926;BME280;37952;51.938;15.480;2022-08-26T01:57:15;99705.77;;;23.36;70.35
51926;BME280;37952;51.938;15.480;2022-08-26T02:00:22;99707.59;;;23.34;70.30
51926;BME280;37952;51.938;15.480;2022-08-26T02:03:26;99704.39;;;23.32;70.40
51926;BME280;37952;51.938;15.480;2022-08-26T02:06:31;99707.25;;;23.24;70.85
51926;BME280;37952;51.938;15.480;2022-08-26T02:09:37;99704.02;;;23.20;70.70
51926;BME280;37952;51.938;15.480;2022-08-26T02:12:43;99703.42;;;23.20;71.06
51926;BME280;37952;51.938;15.480;2022-08-26T02:15:51;99701.61;;;23.20;70.95
51926;BME280;37952;51.938;15.480;2022-08-26T02:18:56;99700.95;;;23.18;70.92
51926;BME280;37952;51.938;15.480;2022-08-26T02:22:04;99701.55;;;23.15;70.99
51926;BME280;37952;51.938;15.480;2022-08-26T02:29:04;99697.04;;;23.13;71.17
51926;BME280;37952;51.938;15.480;2022-08-26T02:32:09;99693.48;;;23.09;71.19
51926;BME280;37952;51.938;15.480;2022-08-26T02:35:14;99696.07;;;23.10;71.12
51926;BME280;37952;51.938;15.480;2022-08-26T02:38:21;99692.47;;;23.08;71.41
51926;BME280;37952;51.938;15.480;2022-08-26T02:41:25;99689.85;;;23.08;71.59
51926;BME280;37952;51.938;15.480;2022-08-26T02:44:28;99693.42;;;23.06;71.65
51926;BME280;37952;51.938;15.480;2022-08-26T02:47:35;99689.36;;;23.04;71.54
51926;BME280;37952;51.938;15.480;2022-08-26T02:50:39;99683.51;;;23.02;71.42
51926;BME280;37952;51.938;15.480;2022-08-26T02:53:44;99684.26;;;23.02;71.62
51926;BME280;37952;51.938;15.480;2022-08-26T02:56:47;99681.55;;;23.03;71.77
51926;BME280;37952;51.938;15.480;2022-08-26T02:59:50;99678.28;;;23.02;71.74
51926;BME280;37952;51.938;15.480;2022-08-26T03:02:53;99674.48;;;23.01;71.84
51926;BME280;37952;51.938;15.480;2022-08-26T03:05:57;99671.95;;;22.96;71.94
51926;BME280;37952;51.938;15.480;2022-08-26T03:09:00;99669.91;;;22.93;72.16
51926;BME280;37952;51.938;15.480;2022-08-26T03:12:03;99667.77;;;22.95;72.21
51926;BME280;37952;51.938;15.480;2022-08-26T03:15:07;99667.16;;;22.95;72.16
51926;BME280;37952;51.938;15.480;2022-08-26T03:18:19;99666.40;;;22.94;72.06
51926;BME280;37952;51.938;15.480;2022-08-26T03:21:22;99664.02;;;22.93;72.26
51926;BME280;37952;51.938;15.480;2022-08-26T03:24:25;99663.06;;;22.93;72.28
51926;BME280;37952;51.938;15.480;2022-08-26T03:27:30;99661.45;;;22.95;72.34
51926;BME280;37952;51.938;15.480;2022-08-26T03:30:34;99661.73;;;22.96;72.33
51926;BME280;37952;51.938;15.480;2022-08-26T03:33:47;99657.39;;;22.96;72.21
51926;BME280;37952;51.938;15.480;2022-08-26T03:36:53;99657.36;;;22.96;72.36
51926;BME280;37952;51.938;15.480;2022-08-26T03:39:56;99653.58;;;22.98;72.42
51926;BME280;37952;51.938;15.480;2022-08-26T03:43:00;99657.04;;;22.99;72.40
51926;BME280;37952;51.938;15.480;2022-08-26T03:46:05;99654.13;;;23.01;72.31
51926;BME280;37952;51.938;15.480;2022-08-26T03:49:08;99654.02;;;23.02;72.42
51926;BME280;37952;51.938;15.480;2022-08-26T03:52:11;99650.25;;;23.02;72.46
51926;BME280;37952;51.938;15.480;2022-08-26T03:55:16;99649.33;;;23.02;72.30
51926;BME280;37952;51.938;15.480;2022-08-26T03:58:20;99650.55;;;23.01;72.26
51926;BME280;37952;51.938;15.480;2022-08-26T04:01:27;99645.80;;;22.98;72.24
51926;BME280;37952;51.938;15.480;2022-08-26T04:04:34;99644.34;;;22.97;72.34
51926;BME280;37952;51.938;15.480;2022-08-26T04:07:37;99645.60;;;22.95;72.32
51926;BME280;37952;51.938;15.480;2022-08-26T04:10:44;99644.03;;;22.92;72.30
51926;BME280;37952;51.938;15.480;2022-08-26T04:13:48;99644.52;;;22.87;72.42
51926;BME280;37952;51.938;15.480;2022-08-26T04:16:52;99643.50;;;22.85;72.54
51926;BME280;37952;51.938;15.480;2022-08-26T04:19:57;99646.14;;;22.84;72.56
51926;BME280;37952;51.938;15.480;2022-08-26T04:23:00;99642.32;;;22.80;72.60
51926;BME280;37952;51.938;15.480;2022-08-26T04:26:04;99645.27;;;22.78;72.86
51926;BME280;37952;51.938;15.480;2022-08-26T04:29:21;99643.31;;;22.76;73.05
51926;BME280;37952;51.938;15.480;2022-08-26T04:32:25;99644.66;;;22.75;73.35
51926;BME280;37952;51.938;15.480;2022-08-26T04:35:32;99645.08;;;22.73;73.34
51926;BME280;37952;51.938;15.480;2022-08-26T04:38:39;99645.93;;;22.72;73.40
51926;BME280;37952;51.938;15.480;2022-08-26T04:41:43;99642.06;;;22.71;73.70
51926;BME280;37952;51.938;15.480;2022-08-26T04:44:46;99645.74;;;22.69;73.73
51926;BME280;37952;51.938;15.480;2022-08-26T04:47:55;99645.77;;;22.65;73.89
51926;BME280;37952;51.938;15.480;2022-08-26T04:50:59;99651.73;;;22.63;73.92
51926;BME280;37952;51.938;15.480;2022-08-26T04:54:03;99649.00;;;22.64;74.15
51926;BME280;37952;51.938;15.480;2022-08-26T04:57:09;99650.23;;;22.64;74.19
51926;BME280;37952;51.938;15.480;2022-08-26T05:00:13;99647.23;;;22.62;74.10
51926;BME280;37952;51.938;15.480;2022-08-26T05:03:18;99645.70;;;22.64;74.21
51926;BME280;37952;51.938;15.480;2022-08-26T05:06:21;99651.42;;;22.66;74.33
51926;BME280;37952;51.938;15.480;2022-08-26T05:09:24;99653.94;;;22.68;74.39
51926;BME280;37952;51.938;15.480;2022-08-26T05:12:28;99652.63;;;22.68;74.46
51926;BME280;37952;51.938;15.480;2022-08-26T05:15:34;99653.93;;;22.69;74.36
51926;BME280;37952;51.938;15.480;2022-08-26T05:18:39;99656.07;;;22.68;74.63
51926;BME280;37952;51.938;15.480;2022-08-26T05:21:45;99659.42;;;22.68;74.63
51926;BME280;37952;51.938;15.480;2022-08-26T05:24:49;99662.23;;;22.69;74.63
51926;BME280;37952;51.938;15.480;2022-08-26T05:27:57;99661.30;;;22.66;74.61
51926;BME280;37952;51.938;15.480;2022-08-26T05:31:18;99661.88;;;22.64;74.86
51926;BME280;37952;51.938;15.480;2022-08-26T05:34:22;99661.13;;;22.63;75.03
51926;BME280;37952;51.938;15.480;2022-08-26T05:37:32;99664.20;;;22.65;74.86
51926;BME280;37952;51.938;15.480;2022-08-26T05:40:41;99664.66;;;22.63;74.97
51926;BME280;37952;51.938;15.480;2022-08-26T05:43:46;99658.85;;;22.62;75.11
51926;BME280;37952;51.938;15.480;2022-08-26T05:46:50;99659.08;;;22.64;75.05
51926;BME280;37952;51.938;15.480;2022-08-26T05:49:53;99655.32;;;22.70;75.03
51926;BME280;37952;51.938;15.480;2022-08-26T05:52:57;99657.10;;;22.75;75.00
51926;BME280;37952;51.938;15.480;2022-08-26T05:56:02;99653.67;;;22.74;74.91
51926;BME280;37952;51.938;15.480;2022-08-26T05:59:05;99656.75;;;22.78;74.98
51926;BME280;37952;51.938;15.480;2022-08-26T06:02:16;99656.30;;;22.80;74.98
51926;BME280;37952;51.938;15.480;2022-08-26T06:05:20;99655.33;;;22.86;74.92
51926;BME280;37952;51.938;15.480;2022-08-26T06:08:24;99654.39;;;22.86;74.68
51926;BME280;37952;51.938;15.480;2022-08-26T06:11:28;99654.82;;;22.86;74.84
51926;BME280;37952;51.938;15.480;2022-08-26T06:14:34;99655.27;;;22.89;74.79
51926;BME280;37952;51.938;15.480;2022-08-26T06:17:38;99655.61;;;22.94;74.73
51926;BME280;37952;51.938;15.480;2022-08-26T06:20:42;99650.58;;;23.00;74.72
51926;BME280;37952;51.938;15.480;2022-08-26T06:24:02;99650.33;;;23.03;74.59
51926;BME280;37952;51.938;15.480;2022-08-26T06:27:29;99650.84;;;23.03;74.49
51926;BME280;37952;51.938;15.480;2022-08-26T06:30:38;99649.89;;;23.03;74.59
51926;BME280;37952;51.938;15.480;2022-08-26T06:33:43;99653.84;;;23.04;74.52
51926;BME280;37952;51.938;15.480;2022-08-26T06:36:47;99658.39;;;23.05;74.41
51926;BME280;37952;51.938;15.480;2022-08-26T06:39:54;99653.20;;;23.03;74.36
51926;BME280;37952;51.938;15.480;2022-08-26T06:43:00;99657.73;;;23.05;74.58
51926;BME280;37952;51.938;15.480;2022-08-26T06:46:09;99656.34;;;23.07;74.53
51926;BME280;37952;51.938;15.480;2022-08-26T06:49:13;99656.06;;;23.05;74.44
51926;BME280;37952;51.938;15.480;2022-08-26T06:52:19;99658.09;;;23.04;74.55
51926;BME280;37952;51.938;15.480;2022-08-26T06:55:26;99656.93;;;23.05;74.55
51926;BME280;37952;51.938;15.480;2022-08-26T06:58:30;99663.55;;;23.08;74.42
51926;BME280;37952;51.938;15.480;2022-08-26T07:01:38;99668.19;;;23.12;74.55
51926;BME280;37952;51.938;15.480;2022-08-26T07:04:45;99667.11;;;23.12;74.51
51926;BME280;37952;51.938;15.480;2022-08-26T07:07:49;99665.79;;;23.12;74.50
51926;BME280;37952;51.938;15.480;2022-08-26T07:10:55;99664.53;;;23.12;74.53
51926;BME280;37952;51.938;15.480;2022-08-26T07:13:59;99663.70;;;23.13;74.40
51926;BME280;37952;51.938;15.480;2022-08-26T07:17:03;99659.13;;;23.15;74.38
51926;BME280;37952;51.938;15.480;2022-08-26T07:20:11;99663.31;;;23.18;74.52
51926;BME280;37952;51.938;15.480;2022-08-26T07:23:14;99664.92;;;23.20;74.44
51926;BME280;37952;51.938;15.480;2022-08-26T07:26:22;99662.89;;;23.22;74.51
51926;BME280;37952;51.938;15.480;2022-08-26T07:29:27;99665.51;;;23.25;74.43
51926;BME280;37952;51.938;15.480;2022-08-26T07:32:31;99663.11;;;23.28;74.56
51926;BME280;37952;51.938;15.480;2022-08-26T07:35:34;99662.30;;;23.29;74.37
51926;BME280;37952;51.938;15.480;2022-08-26T07:38:38;99662.49;;;23.30;74.39
51926;BME280;37952;51.938;15.480;2022-08-26T07:41:41;99663.70;;;23.34;74.42
51926;BME280;37952;51.938;15.480;2022-08-26T07:44:48;99662.52;;;23.39;74.28
51926;BME280;37952;51.938;15.480;2022-08-26T07:47:52;99662.30;;;23.46;74.31
51926;BME280;37952;51.938;15.480;2022-08-26T07:55:28;99663.63;;;23.53;74.09
51926;BME280;37952;51.938;15.480;2022-08-26T07:58:34;99662.62;;;23.57;74.02
51926;BME280;37952;51.938;15.480;2022-08-26T08:01:39;99663.45;;;23.60;73.85
51926;BME280;37952;51.938;15.480;2022-08-26T08:04:46;99661.34;;;23.60;73.70
51926;BME280;37952;51.938;15.480;2022-08-26T08:12:46;99658.27;;;23.62;73.68
51926;BME280;37952;51.938;15.480;2022-08-26T08:15:50;99652.77;;;23.67;73.68
51926;BME280;37952;51.938;15.480;2022-08-26T08:18:54;99652.54;;;23.71;73.54
51926;BME280;37952;51.938;15.480;2022-08-26T08:22:00;99653.83;;;23.73;73.39
51926;BME280;37952;51.938;15.480;2022-08-26T08:25:20;99652.02;;;23.76;73.39
51926;BME280;37952;51.938;15.480;2022-08-26T08:28:24;99645.98;;;23.79;73.30
51926;BME280;37952;51.938;15.480;2022-08-26T08:31:30;99649.45;;;23.82;73.15
51926;BME280;37952;51.938;15.480;2022-08-26T08:34:54;99653.11;;;23.83;73.04
51926;BME280;37952;51.938;15.480;2022-08-26T08:37:57;99645.16;;;23.88;73.01
51926;BME280;37952;51.938;15.480;2022-08-26T08:41:00;99642.30;;;23.91;72.99
51926;BME280;37952;51.938;15.480;2022-08-26T08:44:23;99637.75;;;23.95;72.75
51926;BME280;37952;51.938;15.480;2022-08-26T08:47:41;99634.70;;;23.97;72.66
51926;BME280;37952;51.938;15.480;2022-08-26T08:50:49;99631.19;;;24.01;72.52
51926;BME280;37952;51.938;15.480;2022-08-26T08:53:53;99632.38;;;24.08;72.51
51926;BME280;37952;51.938;15.480;2022-08-26T08:57:26;99632.20;;;24.14;72.35
51926;BME280;37952;51.938;15.480;2022-08-26T09:00:35;99628.35;;;24.14;72.02
51926;BME280;37952;51.938;15.480;2022-08-26T09:07:11;99626.27;;;24.20;72.14
51926;BME280;37952;51.938;15.480;2022-08-26T09:13:26;99626.08;;;24.29;71.85
51926;BME280;37952;51.938;15.480;2022-08-26T09:23:42;99620.15;;;24.41;71.60
51926;BME280;37952;51.938;15.480;2022-08-26T09:26:51;99614.56;;;24.46;71.29
51926;BME280;37952;51.938;15.480;2022-08-26T09:29:58;99613.86;;;24.50;71.26
51926;BME280;37952;51.938;15.480;2022-08-26T09:33:07;99613.85;;;24.56;71.14
51926;BME280;37952;51.938;15.480;2022-08-26T09:36:32;99610.39;;;24.62;71.21
51926;BME280;37952;51.938;15.480;2022-08-26T09:39:41;99612.00;;;24.68;70.80
51926;BME280;37952;51.938;15.480;2022-08-26T09:42:44;99606.92;;;24.73;70.57
51926;BME280;37952;51.938;15.480;2022-08-26T09:46:13;99602.65;;;24.77;70.47
51926;BME280;37952;51.938;15.480;2022-08-26T09:49:35;99603.15;;;24.80;70.42
51926;BME280;37952;51.938;15.480;2022-08-26T09:52:40;99601.55;;;24.87;70.35
51926;BME280;37952;51.938;15.480;2022-08-26T09:55:47;99597.63;;;24.92;70.17
51926;BME280;37952;51.938;15.480;2022-08-26T09:58:51;99595.94;;;24.97;69.94
51926;BME280;37952;51.938;15.480;2022-08-26T10:02:15;99594.30;;;25.00;69.70
51926;BME280;37952;51.938;15.480;2022-08-26T10:05:28;99587.80;;;25.03;69.19
51926;BME280;37952;51.938;15.480;2022-08-26T10:08:38;99585.39;;;25.09;68.41
51926;BME280;37952;51.938;15.480;2022-08-26T10:11:47;99580.91;;;25.14;68.26
51926;BME280;37952;51.938;15.480;2022-08-26T10:14:55;99585.78;;;25.20;68.10
51926;BME280;37952;51.938;15.480;2022-08-26T10:21:58;99578.15;;;25.26;68.11
51926;BME280;37952;51.938;15.480;2022-08-26T10:25:06;99573.17;;;25.30;67.78
51926;BME280;37952;51.938;15.480;2022-08-26T10:31:41;99566.25;;;25.38;67.12
51926;BME280;37952;51.938;15.480;2022-08-26T10:34:46;99562.91;;;25.42;67.12
51926;BME280;37952;51.938;15.480;2022-08-26T10:37:58;99555.99;;;25.47;67.13
51926;BME280;37952;51.938;15.480;2022-08-26T10:41:12;99558.48;;;25.52;66.81
51926;BME280;37952;51.938;15.480;2022-08-26T10:44:32;99562.55;;;25.57;66.75
51926;BME280;37952;51.938;15.480;2022-08-26T10:47:44;99556.36;;;25.62;66.66
51926;BME280;37952;51.938;15.480;2022-08-26T10:50:51;99550.38;;;25.64;66.44
51926;BME280;37952;51.938;15.480;2022-08-26T10:54:03;99548.48;;;25.68;66.17
51926;BME280;37952;51.938;15.480;2022-08-26T10:57:37;99545.11;;;25.76;65.99
51926;BME280;37952;51.938;15.480;2022-08-26T11:00:48;99542.62;;;25.81;65.89
51926;BME280;37952;51.938;15.480;2022-08-26T11:07:50;99535.65;;;25.89;65.56
51926;BME280;37952;51.938;15.480;2022-08-26T11:10:58;99531.22;;;25.94;65.57
51926;BME280;37952;51.938;15.480;2022-08-26T11:14:04;99532.45;;;25.98;65.29
51926;BME280;37952;51.938;15.480;2022-08-26T11:17:08;99527.41;;;26.02;64.63
51926;BME280;37952;51.938;15.480;2022-08-26T11:26:36;99510.71;;;26.16;62.34
51926;BME280;37952;51.938;15.480;2022-08-26T11:33:07;99506.27;;;26.32;62.47
51926;BME280;37952;51.938;15.480;2022-08-26T11:39:49;99491.65;;;26.44;61.96
51926;BME280;37952;51.938;15.480;2022-08-26T11:43:03;99490.20;;;26.50;61.78
51926;BME280;37952;51.938;15.480;2022-08-26T11:46:11;99486.39;;;26.58;60.96
51926;BME280;37952;51.938;15.480;2022-08-26T11:49:16;99485.98;;;26.68;60.91
51926;BME280;37952;51.938;15.480;2022-08-26T11:52:20;99482.17;;;26.75;60.18
51926;BME280;37952;51.938;15.480;2022-08-26T11:55:24;99477.55;;;26.84;59.83
51926;BME280;37952;51.938;15.480;2022-08-26T11:58:28;99481.17;;;26.96;59.58
51926;BME280;37952;51.938;15.480;2022-08-26T12:01:35;99476.75;;;27.02;59.48
51926;BME280;37952;51.938;15.480;2022-08-26T12:04:42;99474.95;;;27.05;58.08
51926;BME280;37952;51.938;15.480;2022-08-26T12:07:48;99470.55;;;27.15;58.49
51926;BME280;37952;51.938;15.480;2022-08-26T12:11:06;99465.38;;;27.24;57.56
51926;BME280;37952;51.938;15.480;2022-08-26T12:14:20;99468.98;;;27.37;58.20
51926;BME280;37952;51.938;15.480;2022-08-26T12:17:26;99462.52;;;27.46;57.85
51926;BME280;37952;51.938;15.480;2022-08-26T12:20:35;99459.45;;;27.55;57.22
51926;BME280;37952;51.938;15.480;2022-08-26T12:23:55;99452.69;;;27.70;56.56
51926;BME280;37952;51.938;15.480;2022-08-26T12:27:11;99450.69;;;27.84;56.11
51926;BME280;37952;51.938;15.480;2022-08-26T12:30:19;99450.45;;;27.96;55.91
51926;BME280;37952;51.938;15.480;2022-08-26T12:33:22;99443.88;;;28.00;55.98
51926;BME280;37952;51.938;15.480;2022-08-26T12:36:38;99444.68;;;28.06;55.86
51926;BME280;37952;51.938;15.480;2022-08-26T12:39:43;99435.95;;;28.18;55.20
51926;BME280;37952;51.938;15.480;2022-08-26T12:42:46;99428.95;;;28.31;54.18
51926;BME280;37952;51.938;15.480;2022-08-26T12:45:57;99432.52;;;28.43;51.85
51926;BME280;37952;51.938;15.480;2022-08-26T12:49:09;99422.77;;;28.59;52.41
51926;BME280;37952;51.938;15.480;2022-08-26T12:56:24;99416.33;;;28.71;51.54
51926;BME280;37952;51.938;15.480;2022-08-26T12:59:29;99409.55;;;28.73;51.98
51926;BME280;37952;51.938;15.480;2022-08-26T13:02:34;99397.56;;;28.80;51.56
51926;BME280;37952;51.938;15.480;2022-08-26T13:05:37;99390.16;;;28.86;51.77
51926;BME280;37952;51.938;15.480;2022-08-26T13:08:42;99390.49;;;28.93;51.55
51926;BME280;37952;51.938;15.480;2022-08-26T13:14:49;99387.97;;;29.08;50.93
51926;BME280;37952;51.938;15.480;2022-08-26T13:17:52;99377.81;;;28.95;51.30
51926;BME280;37952;51.938;15.480;2022-08-26T13:20:59;99375.02;;;28.82;50.44
51926;BME280;37952;51.938;15.480;2022-08-26T13:24:12;99370.88;;;28.76;50.92
51926;BME280;37952;51.938;15.480;2022-08-26T13:27:16;99366.98;;;28.79;51.80
51926;BME280;37952;51.938;15.480;2022-08-26T13:30:22;99363.10;;;28.86;51.95
51926;BME280;37952;51.938;15.480;2022-08-26T13:33:26;99362.70;;;29.00;51.88
51926;BME280;37952;51.938;15.480;2022-08-26T13:36:30;99360.04;;;29.17;51.92
51926;BME280;37952;51.938;15.480;2022-08-26T13:39:33;99359.08;;;29.33;51.13
51926;BME280;37952;51.938;15.480;2022-08-26T13:42:36;99355.33;;;29.55;49.50
51926;BME280;37952;51.938;15.480;2022-08-26T13:45:51;99359.06;;;29.75;47.77
51926;BME280;37952;51.938;15.480;2022-08-26T13:48:55;99364.55;;;29.75;46.75
51926;BME280;37952;51.938;15.480;2022-08-26T13:51:58;99362.17;;;29.88;48.58
51926;BME280;37952;51.938;15.480;2022-08-26T13:55:02;99356.31;;;30.03;46.34
51926;BME280;37952;51.938;15.480;2022-08-26T13:58:05;99359.58;;;30.22;47.73
51926;BME280;37952;51.938;15.480;2022-08-26T14:01:09;99356.98;;;30.38;47.87
51926;BME280;37952;51.938;15.480;2022-08-26T14:04:12;99355.27;;;30.52;47.82
51926;BME280;37952;51.938;15.480;2022-08-26T14:07:16;99345.60;;;30.67;45.89
51926;BME280;37952;51.938;15.480;2022-08-26T14:10:19;99343.81;;;30.82;44.18
51926;BME280;37952;51.938;15.480;2022-08-26T14:13:24;99341.94;;;31.01;43.87
51926;BME280;37952;51.938;15.480;2022-08-26T14:16:31;99340.94;;;31.14;41.60
51926;BME280;37952;51.938;15.480;2022-08-26T14:19:53;99344.63;;;31.31;43.62
51926;BME280;37952;51.938;15.480;2022-08-26T14:22:57;99345.91;;;31.51;42.45
51926;BME280;37952;51.938;15.480;2022-08-26T14:26:27;99339.50;;;31.70;44.18
51926;BME280;37952;51.938;15.480;2022-08-26T14:29:35;99337.85;;;31.84;43.49
51926;BME280;37952;51.938;15.480;2022-08-26T14:32:43;99332.73;;;31.92;43.50
51926;BME280;37952;51.938;15.480;2022-08-26T14:35:50;99320.54;;;32.00;42.26
51926;BME280;37952;51.938;15.480;2022-08-26T14:38:58;99323.42;;;32.06;41.75
51926;BME280;37952;51.938;15.480;2022-08-26T14:42:03;99321.31;;;32.05;39.50
51926;BME280;37952;51.938;15.480;2022-08-26T14:45:08;99325.17;;;32.03;39.81
51926;BME280;37952;51.938;15.480;2022-08-26T14:48:15;99327.48;;;32.03;39.66
51926;BME280;37952;51.938;15.480;2022-08-26T14:51:18;99322.73;;;32.05;41.27
51926;BME280;37952;51.938;15.480;2022-08-26T14:54:24;99322.54;;;32.05;38.47
51926;BME280;37952;51.938;15.480;2022-08-26T14:57:28;99320.66;;;32.11;40.51
51926;BME280;37952;51.938;15.480;2022-08-26T15:00:32;99318.67;;;32.13;38.50
51926;BME280;37952;51.938;15.480;2022-08-26T15:03:35;99321.71;;;32.18;40.17
51926;BME280;37952;51.938;15.480;2022-08-26T15:06:39;99314.23;;;32.23;39.71
51926;BME280;37952;51.938;15.480;2022-08-26T15:09:44;99317.96;;;32.23;39.42
51926;BME280;37952;51.938;15.480;2022-08-26T15:12:48;99321.48;;;32.24;38.61
51926;BME280;37952;51.938;15.480;2022-08-26T15:15:51;99323.60;;;32.27;37.34
51926;BME280;37952;51.938;15.480;2022-08-26T15:18:56;99324.64;;;32.27;38.52
51926;BME280;37952;51.938;15.480;2022-08-26T15:22:00;99328.10;;;32.21;38.73
51926;BME280;37952;51.938;15.480;2022-08-26T15:25:05;99324.39;;;32.03;38.75
51926;BME280;37952;51.938;15.480;2022-08-26T15:28:09;99320.39;;;31.84;38.63
51926;BME280;37952;51.938;15.480;2022-08-26T15:31:13;99321.38;;;31.78;38.65
51926;BME280;37952;51.938;15.480;2022-08-26T15:34:16;99325.23;;;31.61;38.97
51926;BME280;37952;51.938;15.480;2022-08-26T15:37:19;99314.24;;;31.41;38.18
51926;BME280;37952;51.938;15.480;2022-08-26T15:40:24;99336.45;;;31.35;38.42
51926;BME280;37952;51.938;15.480;2022-08-26T15:43:29;99339.37;;;31.23;38.00
51926;BME280;37952;51.938;15.480;2022-08-26T15:46:34;99338.15;;;31.19;37.92
51926;BME280;37952;51.938;15.480;2022-08-26T15:49:44;99336.77;;;31.29;38.69
51926;BME280;37952;51.938;15.480;2022-08-26T15:53:12;99331.33;;;31.39;38.77
51926;BME280;37952;51.938;15.480;2022-08-26T15:56:24;99328.88;;;31.46;37.72
51926;BME280;37952;51.938;15.480;2022-08-26T15:59:28;99329.98;;;31.46;37.79
51926;BME280;37952;51.938;15.480;2022-08-26T16:02:33;99326.41;;;31.47;38.55
51926;BME280;37952;51.938;15.480;2022-08-26T16:05:38;99322.20;;;31.45;38.70
51926;BME280;37952;51.938;15.480;2022-08-26T16:08:42;99323.71;;;31.31;39.03
51926;BME280;37952;51.938;15.480;2022-08-26T16:11:50;99325.00;;;31.14;38.63
51926;BME280;37952;51.938;15.480;2022-08-26T16:14:53;99319.48;;;30.95;38.52
51926;BME280;37952;51.938;15.480;2022-08-26T16:17:58;99321.35;;;30.72;37.56
51926;BME280;37952;51.938;15.480;2022-08-26T16:21:01;99319.48;;;30.51;38.58
51926;BME280;37952;51.938;15.480;2022-08-26T16:24:16;99324.29;;;30.35;38.99
51926;BME280;37952;51.938;15.480;2022-08-26T16:27:20;99328.11;;;30.18;39.08
51926;BME280;37952;51.938;15.480;2022-08-26T16:30:25;99328.11;;;30.04;39.70
51926;BME280;37952;51.938;15.480;2022-08-26T16:33:28;99327.60;;;29.91;39.86
51926;BME280;37952;51.938;15.480;2022-08-26T16:36:32;99325.77;;;29.79;40.26
51926;BME280;37952;51.938;15.480;2022-08-26T16:39:35;99327.55;;;29.68;40.48
51926;BME280;37952;51.938;15.480;2022-08-26T16:42:47;99328.17;;;29.58;40.95
51926;BME280;37952;51.938;15.480;2022-08-26T16:45:52;99328.48;;;29.37;41.97
51926;BME280;37952;51.938;15.480;2022-08-26T16:49:05;99329.22;;;29.06;43.19
51926;BME280;37952;51.938;15.480;2022-08-26T16:52:09;99335.52;;;28.78;43.96
51926;BME280;37952;51.938;15.480;2022-08-26T16:55:15;99339.98;;;28.58;44.65
51926;BME280;37952;51.938;15.480;2022-08-26T16:58:19;99334.16;;;28.45;45.18
51926;BME280;37952;51.938;15.480;2022-08-26T17:01:24;99331.00;;;28.35;45.62
51926;BME280;37952;51.938;15.480;2022-08-26T17:04:29;99331.21;;;28.23;46.32
51926;BME280;37952;51.938;15.480;2022-08-26T17:07:35;99323.54;;;28.10;46.57
51926;BME280;37952;51.938;15.480;2022-08-26T17:10:39;99318.25;;;28.01;46.96
51926;BME280;37952;51.938;15.480;2022-08-26T17:13:43;99316.29;;;27.93;47.44
51926;BME280;37952;51.938;15.480;2022-08-26T17:16:46;99315.02;;;27.86;47.84